createdAt,value
2018-12-24T00:00:52.516Z,52.53
2018-12-24T00:01:54.760Z,52.53
2018-12-24T00:02:56.932Z,52.64
2018-12-24T00:03:59.173Z,52.64
2018-12-24T00:05:01.361Z,52.56
2018-12-24T00:06:03.608Z,52.46
2018-12-24T00:07:05.768Z,52.50
2018-12-24T00:08:07.932Z,52.50
2018-12-24T00:09:10.097Z,52.50
2018-12-24T00:10:12.296Z,52.57
2018-12-24T00:11:14.518Z,52.46
2018-12-24T00:12:16.908Z,52.30
2018-12-24T00:13:19.456Z,52.36
2018-12-24T00:14:21.637Z,52.39
2018-12-24T00:15:23.827Z,52.43
2018-12-24T00:16:25.997Z,52.40
2018-12-24T00:17:28.280Z,52.21
2018-12-24T00:18:30.551Z,52.26
2018-12-24T00:19:32.920Z,52.27
2018-12-24T00:20:35.503Z,52.28
2018-12-24T00:21:38.382Z,52.36
2018-12-24T00:22:40.747Z,52.41
2018-12-24T00:23:42.926Z,52.32
2018-12-24T00:24:47.787Z,52.32
2018-12-24T00:25:51.693Z,52.29
2018-12-24T00:26:53.924Z,52.30
2018-12-24T00:27:56.328Z,52.34
2018-12-24T00:28:58.509Z,52.21
2018-12-24T00:30:01.515Z,52.28
2018-12-24T00:31:03.722Z,52.21
2018-12-24T00:32:05.986Z,52.22
2018-12-24T00:33:08.148Z,52.27
2018-12-24T00:34:10.295Z,52.21
2018-12-24T00:35:12.746Z,52.18
2018-12-24T00:36:14.918Z,52.16
2018-12-24T00:37:17.143Z,52.22
2018-12-24T00:38:19.311Z,52.22
2018-12-24T00:39:21.685Z,52.14
2018-12-24T00:40:24.021Z,52.10
2018-12-24T00:41:26.301Z,52.17
2018-12-24T00:42:29.672Z,52.22
2018-12-24T00:43:32.012Z,52.25
2018-12-24T00:44:34.257Z,52.21
2018-12-24T00:45:36.413Z,52.03
2018-12-24T00:46:38.603Z,52.10
2018-12-24T00:47:40.759Z,52.14
2018-12-24T00:48:43.004Z,52.10
2018-12-24T00:49:45.162Z,52.08
2018-12-24T00:50:47.317Z,52.05
2018-12-24T00:51:49.511Z,52.02
2018-12-24T00:52:51.663Z,52.03
2018-12-24T00:53:53.861Z,52.09
2018-12-24T00:54:56.031Z,52.00
2018-12-24T00:55:58.173Z,52.10
2018-12-24T00:57:00.370Z,51.99
2018-12-24T00:58:02.608Z,52.05
2018-12-24T00:59:04.821Z,52.05
2018-12-24T01:00:06.997Z,51.98
2018-12-24T01:01:09.232Z,51.98
2018-12-24T01:02:11.411Z,52.05
2018-12-24T01:03:13.681Z,51.98
2018-12-24T01:04:15.909Z,51.92
2018-12-24T01:05:18.065Z,51.98
2018-12-24T01:06:20.223Z,52.04
2018-12-24T01:07:22.425Z,51.93
2018-12-24T01:08:24.744Z,51.96
2018-12-24T01:09:26.937Z,51.96
2018-12-24T01:10:29.095Z,51.99
2018-12-24T01:11:31.271Z,51.97
2018-12-24T01:12:33.463Z,51.94
2018-12-24T01:13:35.613Z,51.95
2018-12-24T01:14:37.774Z,51.98
2018-12-24T01:15:39.919Z,51.98
2018-12-24T01:16:42.093Z,51.99
2018-12-24T01:17:44.337Z,51.96
2018-12-24T01:18:46.573Z,52.01
2018-12-24T01:19:48.727Z,52.02
2018-12-24T01:20:50.891Z,51.92
2018-12-24T01:21:53.090Z,51.99
2018-12-24T01:22:55.311Z,51.96
2018-12-24T01:23:57.471Z,52.05
2018-12-24T01:24:59.687Z,52.09
2018-12-24T01:26:01.866Z,52.10
2018-12-24T01:27:04.102Z,52.07
2018-12-24T01:28:10.163Z,51.96
2018-12-24T01:29:12.394Z,51.98
2018-12-24T01:30:14.563Z,52.04
2018-12-24T01:31:16.737Z,52.00
2018-12-24T01:32:18.902Z,51.99
2018-12-24T01:33:21.089Z,52.06
2018-12-24T01:34:23.251Z,52.03
2018-12-24T01:35:25.397Z,51.90
2018-12-24T01:36:27.547Z,51.72
2018-12-24T01:37:29.707Z,51.74
2018-12-24T01:38:31.887Z,51.65
2018-12-24T01:39:34.032Z,51.65
2018-12-24T01:40:36.214Z,51.68
2018-12-24T01:42:08.083Z,51.73
2018-12-24T01:43:10.027Z,51.74
2018-12-24T01:44:13.439Z,51.73
2018-12-24T01:45:17.857Z,51.78
2018-12-24T01:46:19.798Z,51.71
2018-12-24T01:47:21.752Z,51.63
2018-12-24T01:48:23.697Z,51.73
2018-12-24T01:49:25.663Z,51.81
2018-12-24T01:50:27.637Z,51.73
2018-12-24T01:51:29.656Z,51.61
2018-12-24T01:52:31.597Z,51.69
2018-12-24T01:53:33.543Z,51.74
2018-12-24T01:54:35.509Z,51.77
2018-12-24T01:55:37.509Z,51.83
2018-12-24T01:56:39.466Z,51.68
2018-12-24T01:57:41.475Z,51.73
2018-12-24T01:58:43.427Z,51.73
2018-12-24T01:59:45.451Z,51.69
2018-12-24T02:00:47.393Z,51.79
2018-12-24T02:01:49.342Z,51.82
2018-12-24T02:02:51.359Z,51.79
2018-12-24T02:03:53.287Z,51.81
2018-12-24T02:04:55.279Z,51.70
2018-12-24T02:05:57.287Z,51.80
2018-12-24T02:06:59.239Z,51.84
2018-12-24T02:08:01.173Z,51.82
2018-12-24T02:09:04.437Z,51.77
2018-12-24T02:10:06.398Z,51.83
2018-12-24T02:11:08.421Z,51.85
2018-12-24T02:12:10.353Z,51.79
2018-12-24T02:13:12.289Z,51.84
2018-12-24T02:14:14.306Z,51.80
2018-12-24T02:15:16.263Z,51.71
2018-12-24T02:16:18.213Z,51.64
2018-12-24T02:17:20.227Z,51.74
2018-12-24T02:18:22.174Z,51.73
2018-12-24T02:19:24.125Z,51.75
2018-12-24T02:20:26.158Z,51.68
2018-12-24T02:21:28.181Z,51.77
2018-12-24T02:22:30.119Z,51.76
2018-12-24T02:23:32.067Z,51.76
2018-12-24T02:24:34.074Z,51.81
2018-12-24T02:25:36.123Z,51.79
2018-12-24T02:26:38.073Z,51.82
2018-12-24T02:27:40.006Z,51.79
2018-12-24T02:28:41.964Z,51.79
2018-12-24T02:29:43.920Z,51.80
2018-12-24T02:30:49.426Z,51.82
2018-12-24T02:31:51.426Z,51.79
2018-12-24T02:32:53.395Z,51.84
2018-12-24T02:33:55.340Z,51.76
2018-12-24T02:34:57.342Z,51.80
2018-12-24T02:35:59.328Z,51.75
2018-12-24T02:37:01.349Z,51.77
2018-12-24T02:38:03.356Z,51.81
2018-12-24T02:39:05.324Z,51.79
2018-12-24T02:40:07.334Z,51.83
2018-12-24T02:41:09.366Z,51.76
2018-12-24T02:42:11.353Z,51.74
2018-12-24T02:43:13.373Z,51.68
2018-12-24T02:44:15.380Z,51.67
2018-12-24T02:45:17.329Z,51.73
2018-12-24T02:46:19.385Z,51.73
2018-12-24T02:47:21.322Z,51.79
2018-12-24T02:48:23.350Z,51.73
2018-12-24T02:49:25.286Z,51.74
2018-12-24T02:50:27.252Z,51.71
2018-12-24T02:51:29.261Z,51.71
2018-12-24T02:52:31.207Z,51.77
2018-12-24T02:53:33.215Z,51.76
2018-12-24T02:54:35.181Z,51.75
2018-12-24T02:55:37.198Z,51.69
2018-12-24T02:56:39.232Z,51.66
2018-12-24T02:57:41.174Z,51.62
2018-12-24T02:58:43.134Z,51.68
2018-12-24T02:59:45.152Z,51.68
2018-12-24T03:00:47.096Z,51.67
2018-12-24T03:01:49.074Z,51.77
2018-12-24T03:02:51.102Z,51.69
2018-12-24T03:03:53.040Z,51.78
2018-12-24T03:04:55.000Z,51.67
2018-12-24T03:05:56.941Z,51.74
2018-12-24T03:06:59.003Z,51.75
2018-12-24T03:08:01.006Z,51.77
2018-12-24T03:09:04.577Z,51.77
2018-12-24T03:10:07.807Z,51.72
2018-12-24T03:11:09.779Z,51.73
2018-12-24T03:12:11.815Z,51.74
2018-12-24T03:13:13.762Z,51.76
2018-12-24T03:14:17.876Z,51.78
2018-12-24T03:15:22.340Z,51.73
2018-12-24T03:16:24.280Z,51.75
2018-12-24T03:17:26.276Z,51.79
2018-12-24T03:18:28.294Z,51.78
2018-12-24T03:19:30.294Z,51.71
2018-12-24T03:20:32.233Z,51.75
2018-12-24T03:21:34.246Z,51.69
2018-12-24T03:22:36.217Z,51.73
2018-12-24T03:23:38.148Z,51.76
2018-12-24T03:24:40.095Z,51.72
2018-12-24T03:25:42.121Z,51.76
2018-12-24T03:26:44.115Z,51.75
2018-12-24T03:27:46.106Z,51.77
2018-12-24T03:28:48.126Z,51.77
2018-12-24T03:29:50.048Z,51.77
2018-12-24T03:30:51.995Z,51.78
2018-12-24T03:31:54.021Z,51.79
2018-12-24T03:32:56.066Z,51.83
2018-12-24T03:33:58.083Z,51.78
2018-12-24T03:35:00.084Z,51.82
2018-12-24T03:36:02.153Z,51.81
2018-12-24T03:37:04.095Z,51.81
2018-12-24T03:38:06.048Z,51.75
2018-12-24T03:39:08.083Z,51.78
2018-12-24T03:40:10.099Z,51.81
2018-12-24T03:41:12.035Z,51.82
2018-12-24T03:42:13.976Z,51.77
2018-12-24T03:43:17.604Z,51.83
2018-12-24T03:44:19.546Z,51.81
2018-12-24T03:45:21.501Z,51.77
2018-12-24T03:46:23.453Z,51.80
2018-12-24T03:47:25.613Z,51.77
2018-12-24T03:48:27.576Z,51.77
2018-12-24T03:49:29.516Z,51.82
2018-12-24T03:50:31.463Z,51.83
2018-12-24T03:51:33.462Z,51.76
2018-12-24T03:52:35.398Z,51.81
2018-12-24T03:53:37.354Z,51.80
2018-12-24T03:54:39.302Z,51.81
2018-12-24T03:55:41.260Z,51.81
2018-12-24T03:56:43.227Z,51.75
2018-12-24T03:57:45.247Z,51.74
2018-12-24T03:58:47.217Z,51.76
2018-12-24T03:59:49.187Z,51.81
2018-12-24T04:00:51.220Z,51.72
2018-12-24T04:01:53.236Z,51.75
2018-12-24T04:02:55.254Z,51.80
2018-12-24T04:03:57.189Z,51.84
2018-12-24T04:04:59.147Z,51.80
2018-12-24T04:06:01.090Z,51.86
2018-12-24T04:07:03.019Z,51.84
2018-12-24T04:08:04.971Z,51.82
2018-12-24T04:09:06.957Z,51.82
2018-12-24T04:10:09.019Z,51.84
2018-12-24T04:11:11.123Z,51.76
2018-12-24T04:12:13.052Z,51.80
2018-12-24T04:13:22.330Z,51.84
2018-12-24T04:14:18.853Z,51.74
2018-12-24T04:15:20.790Z,51.80
2018-12-24T04:16:23.061Z,51.85
2018-12-24T04:17:25.015Z,51.83
2018-12-24T04:18:27.025Z,51.81
2018-12-24T04:19:28.988Z,51.84
2018-12-24T04:20:31.007Z,51.80
2018-12-24T04:21:32.941Z,51.84
2018-12-24T04:22:34.892Z,51.84
2018-12-24T04:23:36.830Z,51.74
2018-12-24T04:24:38.799Z,51.79
2018-12-24T04:25:42.472Z,51.76
2018-12-24T04:26:44.413Z,51.79
2018-12-24T04:27:46.369Z,51.83
2018-12-24T04:28:48.387Z,51.77
2018-12-24T04:29:50.361Z,51.77
2018-12-24T04:30:52.331Z,51.75
2018-12-24T04:31:54.281Z,51.70
2018-12-24T04:32:56.217Z,51.70
2018-12-24T04:33:59.150Z,51.76
2018-12-24T04:35:01.124Z,51.71
2018-12-24T04:36:03.145Z,51.73
2018-12-24T04:37:05.085Z,51.70
2018-12-24T04:38:07.025Z,51.73
2018-12-24T04:39:08.963Z,51.75
2018-12-24T04:40:10.963Z,51.68
2018-12-24T04:41:15.084Z,51.68
2018-12-24T04:42:17.111Z,51.67
2018-12-24T04:43:19.062Z,51.63
2018-12-24T04:44:21.027Z,51.65
2018-12-24T04:45:23.075Z,51.65
2018-12-24T04:46:25.016Z,51.64
2018-12-24T04:47:26.967Z,51.68
2018-12-24T04:48:28.925Z,51.67
2018-12-24T04:49:30.938Z,51.64
2018-12-24T04:50:32.906Z,51.72
2018-12-24T04:51:34.931Z,51.69
2018-12-24T04:52:36.885Z,51.68
2018-12-24T04:53:38.909Z,51.60
2018-12-24T04:54:40.929Z,51.67
2018-12-24T04:55:42.971Z,51.70
2018-12-24T04:56:44.903Z,51.70
2018-12-24T04:57:46.855Z,51.71
2018-12-24T04:58:48.927Z,51.67
2018-12-24T04:59:50.910Z,51.65
2018-12-24T05:00:52.887Z,51.64
2018-12-24T05:01:54.830Z,51.52
2018-12-24T05:02:57.961Z,51.64
2018-12-24T05:03:59.984Z,51.56
2018-12-24T05:05:01.987Z,51.54
2018-12-24T05:06:04.060Z,51.56
2018-12-24T05:07:05.997Z,51.58
2018-12-24T05:08:07.955Z,51.63
2018-12-24T05:09:09.975Z,51.61
2018-12-24T05:10:11.991Z,51.53
2018-12-24T05:11:13.966Z,51.58
2018-12-24T05:12:15.921Z,51.62
2018-12-24T05:13:17.879Z,51.58
2018-12-24T05:14:19.890Z,51.61
2018-12-24T05:15:21.836Z,51.58
2018-12-24T05:16:23.803Z,51.50
2018-12-24T05:17:25.745Z,51.54
2018-12-24T05:18:27.696Z,51.52
2018-12-24T05:19:29.709Z,51.50
2018-12-24T05:20:31.653Z,51.58
2018-12-24T05:21:33.613Z,51.52
2018-12-24T05:22:35.562Z,51.59
2018-12-24T05:23:37.503Z,51.48
2018-12-24T05:24:39.437Z,51.51
2018-12-24T05:25:41.380Z,51.54
2018-12-24T05:26:43.341Z,51.56
2018-12-24T05:27:45.285Z,51.55
2018-12-24T05:28:47.236Z,51.57
2018-12-24T05:29:49.226Z,51.60
2018-12-24T05:30:51.224Z,51.51
2018-12-24T05:31:53.196Z,51.55
2018-12-24T05:32:55.235Z,51.56
2018-12-24T05:33:57.176Z,51.53
2018-12-24T05:34:59.127Z,51.54
2018-12-24T05:36:01.128Z,51.50
2018-12-24T05:37:03.110Z,51.44
2018-12-24T05:38:05.114Z,51.45
2018-12-24T05:39:07.054Z,51.46
2018-12-24T05:40:08.996Z,51.48
2018-12-24T05:41:10.930Z,51.46
2018-12-24T05:42:14.288Z,51.47
2018-12-24T05:43:16.260Z,51.45
2018-12-24T05:44:18.241Z,51.49
2018-12-24T05:45:20.180Z,51.52
2018-12-24T05:46:22.119Z,51.47
2018-12-24T05:47:24.092Z,51.48
2018-12-24T05:48:26.054Z,51.58
2018-12-24T05:49:28.006Z,51.47
2018-12-24T05:50:30.004Z,51.53
2018-12-24T05:51:31.970Z,51.52
2018-12-24T05:52:33.956Z,51.50
2018-12-24T05:53:35.893Z,51.47
2018-12-24T05:54:37.906Z,51.47
2018-12-24T05:55:39.843Z,51.44
2018-12-24T05:56:41.800Z,51.11
2018-12-24T05:57:43.875Z,51.28
2018-12-24T05:58:45.879Z,51.29
2018-12-24T05:59:47.816Z,51.28
2018-12-24T06:00:49.850Z,51.31
2018-12-24T06:01:51.783Z,51.12
2018-12-24T06:02:53.762Z,51.27
2018-12-24T06:03:55.712Z,50.98
2018-12-24T06:04:57.651Z,50.62
2018-12-24T06:05:59.589Z,50.54
2018-12-24T06:07:01.536Z,50.55
2018-12-24T06:08:03.502Z,50.54
2018-12-24T06:09:05.459Z,50.55
2018-12-24T06:10:07.510Z,50.53
2018-12-24T06:11:09.505Z,50.58
2018-12-24T06:12:11.447Z,50.57
2018-12-24T06:13:13.412Z,50.54
2018-12-24T06:14:15.342Z,50.54
2018-12-24T06:15:17.321Z,50.45
2018-12-24T06:16:19.251Z,50.46
2018-12-24T06:17:21.193Z,50.48
2018-12-24T06:18:23.179Z,50.41
2018-12-24T06:19:25.127Z,50.52
2018-12-24T06:20:27.151Z,50.41
2018-12-24T06:21:29.093Z,50.45
2018-12-24T06:22:31.037Z,50.46
2018-12-24T06:23:33.251Z,50.36
2018-12-24T06:24:35.261Z,50.31
2018-12-24T06:25:37.216Z,50.39
2018-12-24T06:26:39.147Z,50.36
2018-12-24T06:27:41.080Z,50.40
2018-12-24T06:28:43.242Z,50.32
2018-12-24T06:29:45.273Z,50.30
2018-12-24T06:30:47.218Z,50.28
2018-12-24T06:31:49.233Z,50.28
2018-12-24T06:32:51.168Z,50.29
2018-12-24T06:33:53.162Z,50.23
2018-12-24T06:34:55.113Z,50.27
2018-12-24T06:35:57.047Z,50.38
2018-12-24T06:36:59.004Z,50.25
2018-12-24T06:38:00.949Z,50.26
2018-12-24T06:39:03.188Z,50.28
2018-12-24T06:40:05.138Z,50.27
2018-12-24T06:41:07.157Z,50.25
2018-12-24T06:42:09.281Z,50.22
2018-12-24T06:43:11.419Z,50.26
2018-12-24T06:44:13.415Z,50.22
2018-12-24T06:45:15.354Z,50.22
2018-12-24T06:46:17.312Z,50.24
2018-12-24T06:47:21.715Z,50.18
2018-12-24T06:48:23.656Z,50.19
2018-12-24T06:49:25.613Z,50.17
2018-12-24T06:50:27.565Z,50.14
2018-12-24T06:51:29.569Z,50.19
2018-12-24T06:52:31.498Z,50.28
2018-12-24T06:53:33.423Z,50.16
2018-12-24T06:54:35.694Z,50.17
2018-12-24T06:55:37.643Z,50.13
2018-12-24T06:56:39.814Z,50.15
2018-12-24T06:57:43.961Z,50.12
2018-12-24T06:58:45.913Z,50.12
2018-12-24T06:59:47.873Z,50.16
2018-12-24T07:00:49.813Z,50.18
2018-12-24T07:01:51.770Z,50.17
2018-12-24T07:02:53.763Z,50.16
2018-12-24T07:03:56.005Z,50.13
2018-12-24T07:04:57.953Z,50.18
2018-12-24T07:06:03.263Z,50.15
2018-12-24T07:07:05.206Z,50.09
2018-12-24T07:08:07.232Z,50.21
2018-12-24T07:09:09.188Z,50.19
2018-12-24T07:10:11.142Z,50.09
2018-12-24T07:11:13.082Z,50.12
2018-12-24T07:12:15.029Z,50.24
2018-12-24T07:13:16.984Z,50.16
2018-12-24T07:14:19.086Z,50.10
2018-12-24T07:15:21.124Z,50.20
2018-12-24T07:16:23.050Z,50.10
2018-12-24T07:17:24.995Z,50.17
2018-12-24T07:18:26.938Z,50.18
2018-12-24T07:19:28.944Z,50.12
2018-12-24T07:20:30.936Z,50.24
2018-12-24T07:21:32.932Z,50.15
2018-12-24T07:22:34.938Z,50.23
2018-12-24T07:23:36.916Z,50.22
2018-12-24T07:24:38.862Z,50.18
2018-12-24T07:25:40.846Z,50.17
2018-12-24T07:26:42.783Z,50.13
2018-12-24T07:27:44.798Z,50.23
2018-12-24T07:28:46.742Z,50.16
2018-12-24T07:29:48.766Z,50.17
2018-12-24T07:30:50.830Z,50.28
2018-12-24T07:31:52.803Z,50.25
2018-12-24T07:32:54.789Z,50.13
2018-12-24T07:33:56.730Z,50.19
2018-12-24T07:34:58.763Z,50.14
2018-12-24T07:36:00.742Z,50.23
2018-12-24T07:37:05.262Z,50.34
2018-12-24T07:38:07.210Z,50.17
2018-12-24T07:39:09.163Z,50.15
2018-12-24T07:40:11.102Z,50.25
2018-12-24T07:41:13.080Z,50.20
2018-12-24T07:42:15.019Z,50.20
2018-12-24T07:43:16.979Z,50.16
2018-12-24T07:44:24.153Z,50.20
2018-12-24T07:45:22.649Z,50.21
2018-12-24T07:46:24.730Z,50.18
2018-12-24T07:47:26.744Z,50.24
2018-12-24T07:48:30.835Z,50.17
2018-12-24T07:49:32.846Z,50.26
2018-12-24T07:50:36.613Z,50.12
2018-12-24T07:51:38.664Z,50.16
2018-12-24T07:52:40.671Z,50.19
2018-12-24T07:53:42.614Z,50.18
2018-12-24T07:54:44.569Z,50.20
2018-12-24T07:55:46.575Z,50.12
2018-12-24T07:56:48.556Z,50.18
2018-12-24T07:57:50.501Z,50.18
2018-12-24T07:58:52.435Z,50.26
2018-12-24T07:59:56.774Z,50.21
2018-12-24T08:00:58.776Z,50.26
2018-12-24T08:02:00.791Z,50.17
2018-12-24T08:03:02.742Z,50.15
2018-12-24T08:04:04.768Z,50.18
2018-12-24T08:05:14.877Z,50.22
2018-12-24T08:06:16.826Z,50.24
2018-12-24T08:07:18.827Z,50.17
2018-12-24T08:08:20.783Z,50.16
2018-12-24T08:09:22.798Z,50.18
2018-12-24T08:10:24.744Z,50.15
2018-12-24T08:11:26.722Z,50.15
2018-12-24T08:12:28.692Z,50.17
2018-12-24T08:13:30.725Z,50.17
2018-12-24T08:14:33.466Z,50.12
2018-12-24T08:15:37.316Z,50.24
2018-12-24T08:16:39.264Z,50.24
2018-12-24T08:17:41.244Z,50.17
2018-12-24T08:18:43.362Z,50.15
2018-12-24T08:19:45.362Z,50.17
2018-12-24T08:20:47.530Z,50.18
2018-12-24T08:21:49.674Z,50.15
2018-12-24T08:22:51.751Z,50.16
2018-12-24T08:23:55.018Z,50.16
2018-12-24T08:24:56.986Z,50.16
2018-12-24T08:25:58.950Z,50.19
2018-12-24T08:27:00.915Z,50.12
2018-12-24T08:28:02.961Z,50.12
2018-12-24T08:29:04.908Z,50.13
2018-12-24T08:30:06.854Z,50.18
2018-12-24T08:31:08.802Z,50.20
2018-12-24T08:32:11.601Z,50.17
2018-12-24T08:33:15.679Z,50.12
2018-12-24T08:34:17.375Z,50.20
2018-12-24T08:35:20.602Z,50.10
2018-12-24T08:36:22.554Z,50.15
2018-12-24T08:37:27.365Z,50.09
2018-12-24T08:38:29.359Z,50.20
2018-12-24T08:39:31.379Z,50.05
2018-12-24T08:40:33.342Z,50.12
2018-12-24T08:41:35.290Z,50.10
2018-12-24T08:42:37.250Z,50.15
2018-12-24T08:43:39.228Z,50.15
2018-12-24T08:44:41.909Z,50.09
2018-12-24T08:45:44.182Z,50.11
2018-12-24T08:46:46.117Z,50.18
2018-12-24T08:47:49.332Z,50.10
2018-12-24T08:48:51.291Z,50.15
2018-12-24T08:49:53.241Z,50.11
2018-12-24T08:50:55.254Z,50.16
2018-12-24T08:51:57.197Z,50.16
2018-12-24T08:52:59.223Z,50.12
2018-12-24T08:54:01.275Z,50.09
2018-12-24T08:55:03.285Z,50.10
2018-12-24T08:56:05.234Z,50.16
2018-12-24T08:57:07.176Z,50.27
2018-12-24T08:58:09.219Z,50.18
2018-12-24T08:59:11.252Z,50.18
2018-12-24T09:00:13.199Z,50.15
2018-12-24T09:01:15.161Z,50.12
2018-12-24T09:02:17.185Z,50.15
2018-12-24T09:03:19.132Z,50.20
2018-12-24T09:04:21.181Z,50.15
2018-12-24T09:05:23.142Z,50.18
2018-12-24T09:06:25.094Z,50.12
2018-12-24T09:07:27.114Z,50.16
2018-12-24T09:08:29.093Z,50.20
2018-12-24T09:09:31.067Z,50.14
2018-12-24T09:10:33.007Z,50.25
2018-12-24T09:11:35.046Z,50.19
2018-12-24T09:12:37.015Z,50.11
2018-12-24T09:13:38.981Z,50.14
2018-12-24T09:14:41.041Z,50.06
2018-12-24T09:15:42.992Z,50.13
2018-12-24T09:16:46.820Z,50.16
2018-12-24T09:17:48.767Z,50.06
2018-12-24T09:18:50.789Z,50.10
2018-12-24T09:19:52.783Z,50.11
2018-12-24T09:20:54.736Z,50.19
2018-12-24T09:21:56.783Z,50.12
2018-12-24T09:22:58.725Z,50.08
2018-12-24T09:24:00.754Z,50.17
2018-12-24T09:25:02.800Z,50.05
2018-12-24T09:26:04.760Z,50.09
2018-12-24T09:27:06.727Z,50.19
2018-12-24T09:28:08.730Z,50.14
2018-12-24T09:29:10.682Z,50.09
2018-12-24T09:30:12.738Z,50.12
2018-12-24T09:31:14.676Z,50.11
2018-12-24T09:32:16.630Z,50.12
2018-12-24T09:33:18.598Z,50.12
2018-12-24T09:34:20.562Z,50.15
2018-12-24T09:35:22.536Z,50.13
2018-12-24T09:36:24.600Z,50.08
2018-12-24T09:37:26.538Z,50.15
2018-12-24T09:38:28.496Z,50.09
2018-12-24T09:39:30.704Z,50.08
2018-12-24T09:40:35.274Z,50.06
2018-12-24T09:41:37.230Z,50.07
2018-12-24T09:42:39.186Z,50.13
2018-12-24T09:43:41.138Z,50.10
2018-12-24T09:44:43.082Z,50.15
2018-12-24T09:45:45.052Z,50.19
2018-12-24T09:46:47.009Z,50.06
2018-12-24T09:47:49.298Z,50.10
2018-12-24T09:48:51.280Z,50.06
2018-12-24T09:49:53.476Z,50.04
2018-12-24T09:50:56.155Z,50.10
2018-12-24T09:51:58.109Z,50.04
2018-12-24T09:53:00.152Z,50.09
2018-12-24T09:54:02.089Z,50.08
2018-12-24T09:55:04.033Z,50.13
2018-12-24T09:56:06.137Z,50.12
2018-12-24T09:57:08.111Z,50.10
2018-12-24T09:58:10.157Z,50.10
2018-12-24T09:59:12.114Z,50.13
2018-12-24T10:00:17.961Z,50.13
2018-12-24T10:01:20.025Z,50.08
2018-12-24T10:02:22.058Z,50.02
2018-12-24T10:03:24.081Z,49.98
2018-12-24T10:04:32.822Z,49.95
2018-12-24T10:05:35.348Z,50.02
2018-12-24T10:06:37.431Z,49.94
2018-12-24T10:07:40.545Z,49.90
2018-12-24T10:08:42.612Z,49.91
2018-12-24T10:09:44.616Z,49.86
2018-12-24T10:10:46.566Z,49.79
2018-12-24T10:11:48.605Z,49.83
2018-12-24T10:12:50.550Z,49.83
2018-12-24T10:13:52.522Z,49.81
2018-12-24T10:14:54.481Z,49.83
2018-12-24T10:15:56.507Z,49.71
2018-12-24T10:17:00.639Z,49.76
2018-12-24T10:18:02.155Z,49.75
2018-12-24T10:19:04.106Z,49.69
2018-12-24T10:20:06.136Z,49.68
2018-12-24T10:21:08.163Z,49.66
2018-12-24T10:22:10.135Z,49.73
2018-12-24T10:23:12.079Z,49.76
2018-12-24T10:24:14.320Z,49.75
2018-12-24T10:25:16.281Z,49.71
2018-12-24T10:26:18.228Z,49.76
2018-12-24T10:27:22.319Z,49.65
2018-12-24T10:28:24.359Z,49.73
2018-12-24T10:29:26.312Z,49.73
2018-12-24T10:30:28.251Z,49.62
2018-12-24T10:31:30.199Z,49.70
2018-12-24T10:32:32.250Z,49.68
2018-12-24T10:33:34.801Z,49.75
2018-12-24T10:34:36.806Z,49.79
2018-12-24T10:35:39.777Z,49.71
2018-12-24T10:36:41.870Z,49.77
2018-12-24T10:37:43.949Z,49.90
2018-12-24T10:38:45.914Z,50.01
2018-12-24T10:39:47.863Z,50.06
2018-12-24T10:40:49.868Z,50.02
2018-12-24T10:41:51.885Z,50.12
2018-12-24T10:42:53.853Z,50.17
2018-12-24T10:43:56.995Z,50.19
2018-12-24T10:44:59.013Z,50.17
2018-12-24T10:46:00.944Z,50.21
2018-12-24T10:47:02.886Z,50.27
2018-12-24T10:48:06.821Z,50.29
2018-12-24T10:49:08.513Z,50.32
2018-12-24T10:50:10.546Z,50.39
2018-12-24T10:51:12.521Z,50.35
2018-12-24T10:52:14.463Z,50.30
2018-12-24T10:53:16.479Z,50.35
2018-12-24T10:54:18.496Z,50.41
2018-12-24T10:55:22.992Z,50.52
2018-12-24T10:56:24.941Z,50.53
2018-12-24T10:57:26.921Z,50.42
2018-12-24T10:58:28.990Z,50.49
2018-12-24T10:59:31.079Z,50.59
2018-12-24T11:00:33.075Z,50.55
2018-12-24T11:01:35.035Z,50.54
2018-12-24T11:02:37.046Z,50.61
2018-12-24T11:03:39.089Z,50.55
2018-12-24T11:04:42.323Z,50.52
2018-12-24T11:05:44.357Z,50.54
2018-12-24T11:06:46.421Z,50.51
2018-12-24T11:07:48.392Z,50.56
2018-12-24T11:08:52.099Z,50.57
2018-12-24T11:09:54.206Z,50.58
2018-12-24T11:10:56.151Z,50.63
2018-12-24T11:11:58.093Z,50.63
2018-12-24T11:13:00.128Z,50.69
2018-12-24T11:14:02.166Z,50.74
2018-12-24T11:15:04.112Z,50.69
2018-12-24T11:16:06.041Z,50.59
2018-12-24T11:17:09.655Z,50.53
2018-12-24T11:18:11.613Z,50.47
2018-12-24T11:19:13.599Z,50.38
2018-12-24T11:20:18.786Z,50.28
2018-12-24T11:21:20.751Z,50.16
2018-12-24T11:22:22.777Z,50.05
2018-12-24T11:23:24.735Z,49.99
2018-12-24T11:24:26.789Z,50.04
2018-12-24T11:25:28.749Z,49.97
2018-12-24T11:26:30.754Z,49.83
2018-12-24T11:27:32.717Z,49.79
2018-12-24T11:28:34.763Z,49.78
2018-12-24T11:29:36.804Z,49.79
2018-12-24T11:30:38.869Z,49.71
2018-12-24T11:31:40.808Z,49.72
2018-12-24T11:32:42.745Z,49.75
2018-12-24T11:33:44.742Z,49.75
2018-12-24T11:34:46.713Z,49.74
2018-12-24T11:35:48.669Z,49.72
2018-12-24T11:36:50.657Z,49.77
2018-12-24T11:37:52.679Z,49.67
2018-12-24T11:38:54.746Z,49.79
2018-12-24T11:39:56.793Z,49.79
2018-12-24T11:40:58.735Z,49.81
2018-12-24T11:42:00.677Z,49.81
2018-12-24T11:43:02.690Z,49.81
2018-12-24T11:44:04.706Z,49.81
2018-12-24T11:45:06.733Z,49.87
2018-12-24T11:46:08.769Z,49.82
2018-12-24T11:47:10.729Z,49.93
2018-12-24T11:48:12.798Z,49.87
2018-12-24T11:49:14.740Z,49.87
2018-12-24T11:50:16.727Z,49.94
2018-12-24T11:51:20.493Z,49.95
2018-12-24T11:52:22.453Z,49.94
2018-12-24T11:53:24.404Z,50.01
2018-12-24T11:54:26.364Z,50.12
2018-12-24T11:55:28.438Z,50.05
2018-12-24T11:56:32.753Z,50.08
2018-12-24T11:57:34.782Z,50.14
2018-12-24T11:58:36.730Z,50.19
2018-12-24T11:59:38.667Z,50.22
2018-12-24T12:00:43.167Z,50.24
2018-12-24T12:01:45.274Z,50.23
2018-12-24T12:02:47.296Z,50.31
2018-12-24T12:03:49.238Z,50.33
2018-12-24T12:04:51.182Z,50.31
2018-12-24T12:05:56.281Z,50.38
2018-12-24T12:06:58.244Z,50.41
2018-12-24T12:08:00.253Z,50.37
2018-12-24T12:09:02.190Z,50.42
2018-12-24T12:10:04.197Z,50.42
2018-12-24T12:11:06.166Z,50.46
2018-12-24T12:12:08.120Z,50.49
2018-12-24T12:13:10.068Z,50.60
2018-12-24T12:14:12.075Z,50.49
2018-12-24T12:15:14.032Z,50.58
2018-12-24T12:16:16.022Z,50.59
2018-12-24T12:17:18.031Z,50.60
2018-12-24T12:18:20.001Z,50.63
2018-12-24T12:19:22.109Z,50.66
2018-12-24T12:20:24.135Z,50.72
2018-12-24T12:21:26.173Z,50.64
2018-12-24T12:22:28.110Z,50.65
2018-12-24T12:23:30.061Z,50.67
2018-12-24T12:24:34.375Z,50.70
2018-12-24T12:25:36.385Z,50.78
2018-12-24T12:26:38.373Z,50.70
2018-12-24T12:27:40.397Z,50.74
2018-12-24T12:28:42.584Z,50.77
2018-12-24T12:29:46.281Z,50.79
2018-12-24T12:30:48.244Z,50.78
2018-12-24T12:31:51.201Z,50.78
2018-12-24T12:32:53.310Z,50.78
2018-12-24T12:33:55.250Z,50.86
2018-12-24T12:34:57.283Z,50.85
2018-12-24T12:35:59.336Z,50.87
2018-12-24T12:37:01.390Z,50.91
2018-12-24T12:38:03.448Z,50.90
2018-12-24T12:39:05.444Z,50.90
2018-12-24T12:40:07.402Z,50.87
2018-12-24T12:41:09.412Z,50.85
2018-12-24T12:42:11.377Z,50.85
2018-12-24T12:43:15.383Z,50.96
2018-12-24T12:44:16.986Z,50.87
2018-12-24T12:45:18.942Z,50.92
2018-12-24T12:46:20.979Z,50.95
2018-12-24T12:47:23.013Z,50.92
2018-12-24T12:48:25.548Z,50.94
2018-12-24T12:49:27.505Z,50.92
2018-12-24T12:50:29.448Z,50.92
2018-12-24T12:51:31.411Z,50.91
2018-12-24T12:52:33.354Z,50.94
2018-12-24T12:53:35.298Z,50.95
2018-12-24T12:54:37.297Z,51.05
2018-12-24T12:55:39.322Z,51.02
2018-12-24T12:56:41.261Z,51.08
2018-12-24T12:57:43.219Z,51.07
2018-12-24T12:58:48.219Z,51.09
2018-12-24T12:59:50.176Z,51.22
2018-12-24T13:00:52.194Z,51.18
2018-12-24T13:01:54.229Z,51.20
2018-12-24T13:02:56.222Z,51.14
2018-12-24T13:03:58.185Z,51.14
2018-12-24T13:05:00.179Z,51.20
2018-12-24T13:06:02.120Z,51.17
2018-12-24T13:07:04.080Z,51.19
2018-12-24T13:08:06.045Z,51.13
2018-12-24T13:09:08.010Z,51.19
2018-12-24T13:10:09.993Z,51.20
2018-12-24T13:11:11.961Z,51.27
2018-12-24T13:12:13.953Z,51.26
2018-12-24T13:13:16.011Z,51.22
2018-12-24T13:14:17.965Z,51.22
2018-12-24T13:15:19.984Z,51.28
2018-12-24T13:16:23.855Z,51.31
2018-12-24T13:17:25.625Z,51.29
2018-12-24T13:18:27.677Z,51.31
2018-12-24T13:19:29.677Z,51.24
2018-12-24T13:20:31.698Z,51.32
2018-12-24T13:21:33.950Z,51.36